Time;durP1;ratioP1;P1;durP2;ratioP2;P2;SDS_P1;SDS_P2;PMS_P1;PMS_P2;Temp;Humidity;BMP_temperature;BMP_pressure;BME280_temperature;BME280_humidity;BME280_pressure;Samples;Min_cycle;Max_cycle;Signal;HPM_P1;HPM_P2
2021/03/04 00:01:36;;;;;;;51.40;32.60;;;5.80;99.90;;;;;;4970465;28;20412;-77
2021/03/04 00:04:02;;;;;;;55.93;33.93;;;5.80;99.90;;;;;;4972926;28;20453;-77
2021/03/04 00:06:28;;;;;;;48.17;32.30;;;6.20;99.90;;;;;;4967884;28;20506;-78
2021/03/04 00:08:54;;;;;;;51.50;32.40;;;;;;;;;;4972766;28;20411;-78
2021/03/04 00:11:20;;;;;;;51.35;32.33;;;6.20;99.90;;;;;;4974273;28;20389;-77
2021/03/04 00:13:46;;;;;;;51.97;30.83;;;;;;;;;;4967466;28;20411;-77
2021/03/04 00:16:11;;;;;;;51.15;31.50;;;5.70;99.90;;;;;;4967777;28;20849;-77
2021/03/04 00:18:37;;;;;;;51.67;32.80;;;6.40;99.90;;;;;;4963259;28;20896;-76
2021/03/04 00:21:03;;;;;;;50.57;31.23;;;;;;;;;;4966215;28;20761;-76
2021/03/04 00:23:28;;;;;;;53.38;32.58;;;6.00;99.90;;;;;;4967603;28;20392;-76
2021/03/04 00:25:54;;;;;;;51.70;30.73;;;6.00;99.90;;;;;;4965387;28;20469;-76
2021/03/04 00:28:19;;;;;;;53.28;33.03;;;6.00;99.90;;;;;;4966602;28;20462;-76
2021/03/04 00:30:45;;;;;;;52.70;33.33;;;6.00;99.90;;;;;;4959911;28;20401;-76
2021/03/04 00:33:11;;;;;;;54.33;32.43;;;6.10;99.90;;;;;;4964720;28;20394;-77
2021/03/04 00:35:36;;;;;;;50.30;31.30;;;6.30;99.90;;;;;;4970379;28;20410;-77
2021/03/04 00:38:03;;;;;;;49.50;31.10;;;6.50;99.90;;;;;;4967871;28;20450;-77
2021/03/04 00:40:29;;;;;;;46.90;29.10;;;;;;;;;;4962542;28;20417;-77
2021/03/04 00:42:54;;;;;;;46.63;29.33;;;6.20;99.90;;;;;;4959137;28;20874;-77
2021/03/04 00:45:22;;;;;;;49.22;29.95;;;6.10;99.90;;;;;;4972876;28;20397;-77
2021/03/04 00:47:48;;;;;;;47.17;30.45;;;6.30;99.90;;;;;;4956573;28;20416;-77
2021/03/04 00:50:17;;;;;;;49.83;30.97;;;6.20;99.90;;;;;;4972529;28;20400;-76
2021/03/04 00:52:43;;;;;;;48.45;30.08;;;;;;;;;;4968097;28;20399;-76
2021/03/04 00:55:09;;;;;;;50.50;30.92;;;6.30;99.90;;;;;;4969483;28;20780;-77
2021/03/04 00:57:35;;;;;;;48.28;31.15;;;;;;;;;;4970398;28;20754;-76
2021/03/04 01:00:00;;;;;;;46.33;29.38;;;6.40;99.90;;;;;;4968543;28;20398;-77
2021/03/04 01:02:26;;;;;;;48.63;29.40;;;6.40;99.90;;;;;;4971240;28;20384;-77
2021/03/04 01:04:51;;;;;;;48.53;30.63;;;6.80;99.90;;;;;;4967733;28;20396;-77
2021/03/04 01:07:17;;;;;;;47.60;29.73;;;6.40;99.90;;;;;;4969576;28;20436;-77
2021/03/04 01:09:42;;;;;;;47.53;30.40;;;6.20;99.90;;;;;;4970042;28;20423;-77
2021/03/04 01:12:09;;;;;;;48.33;30.00;;;6.20;99.90;;;;;;4971789;28;20380;-76
2021/03/04 01:14:35;;;;;;;48.20;29.60;;;;;;;;;;4968429;28;20885;-77
2021/03/04 01:17:00;;;;;;;47.20;28.83;;;6.10;99.90;;;;;;4971777;28;20435;-76
2021/03/04 01:19:26;;;;;;;50.07;29.63;;;6.10;99.90;;;;;;4965546;28;20392;-76
2021/03/04 01:21:52;;;;;;;47.40;29.80;;;;;;;;;;4969597;28;20396;-77
2021/03/04 01:24:18;;;;;;;50.88;30.73;;;;;;;;;;4964155;28;20400;-76
2021/03/04 01:26:44;;;;;;;48.40;29.30;;;6.30;99.90;;;;;;4968550;28;20933;-77
2021/03/04 01:29:09;;;;;;;48.87;29.40;;;6.10;99.90;;;;;;4971208;28;21042;-77
2021/03/04 01:31:35;;;;;;;47.53;29.57;;;6.10;99.90;;;;;;4966121;28;20452;-77
2021/03/04 01:34:01;;;;;;;47.90;29.40;;;;;;;;;;4972463;28;20395;-76
2021/03/04 01:36:26;;;;;;;50.92;30.10;;;6.00;99.90;;;;;;4973328;28;20399;-76
2021/03/04 01:38:52;;;;;;;50.47;30.10;;;6.20;99.90;;;;;;4966931;28;20396;-77
2021/03/04 01:41:18;;;;;;;48.92;29.92;;;6.10;99.90;;;;;;4962105;28;20441;-77
2021/03/04 01:43:43;;;;;;;48.72;29.10;;;6.10;99.90;;;;;;4965936;28;20906;-75
2021/03/04 01:46:09;;;;;;;47.17;29.85;;;6.50;99.90;;;;;;4964841;28;20406;-76
2021/03/04 01:48:35;;;;;;;59.33;33.72;;;6.20;99.90;;;;;;4943082;28;20419;-76
2021/03/04 01:51:02;;;;;;;67.33;38.47;;;6.20;99.90;;;;;;4936024;29;20395;-77
2021/03/04 01:53:27;;;;;;;59.28;34.58;;;6.20;99.90;;;;;;4935723;29;20413;-76
2021/03/04 01:55:54;;;;;;;53.87;33.53;;;6.50;99.90;;;;;;4945568;29;20831;-77
2021/03/04 01:58:20;;;;;;;54.55;33.25;;;6.20;99.90;;;;;;4952823;28;20478;-77
2021/03/04 02:00:45;;;;;;;53.50;31.70;;;6.10;99.90;;;;;;4935674;29;20882;-76
2021/03/04 02:03:11;;;;;;;51.28;30.33;;;6.30;99.90;;;;;;4948303;29;20406;-76
2021/03/04 02:05:37;;;;;;;50.42;31.20;;;6.20;99.90;;;;;;4937388;28;20396;-77
2021/03/04 02:08:15;;;;;;;50.15;30.50;;;6.10;99.90;;;;;;4940729;29;20419;-78
2021/03/04 02:10:45;;;;;;;48.50;30.15;;;6.00;99.90;;;;;;4947314;28;20395;-78
2021/03/04 02:13:10;;;;;;;47.30;29.70;;;6.30;99.90;;;;;;4935876;29;20414;-77
2021/03/04 02:15:59;;;;;;;47.47;30.23;;;6.20;99.90;;;;;;4936201;29;20774;-77
2021/03/04 02:18:28;;;;;;;49.75;30.50;;;7.60;99.90;;;;;;4933577;29;20400;-77
2021/03/04 02:21:08;;;;;;;46.50;29.75;;;;;;;;;;4952746;28;20914;-76
2021/03/04 02:24:14;;;;;;;44.30;29.00;;;6.00;99.90;;;;;;4938108;29;21051;-77
2021/03/04 02:26:59;;;;;;;48.00;30.90;;;;;;;;;;4936111;29;20403;-77
2021/03/04 02:29:26;;;;;;;46.22;30.50;;;;;;;;;;4935055;29;20396;-77
2021/03/04 02:31:54;;;;;;;48.95;30.70;;;6.30;99.90;;;;;;4935566;29;20419;-77
2021/03/04 02:34:24;;;;;;;52.83;32.55;;;6.00;99.90;;;;;;4947525;28;20400;-77
2021/03/04 02:36:50;;;;;;;52.70;32.23;;;6.00;99.90;;;;;;4962060;28;20390;-76
2021/03/04 02:39:17;;;;;;;52.92;32.42;;;6.00;99.90;;;;;;4954081;28;20386;-77
2021/03/04 02:41:44;;;;;;;49.22;31.60;;;6.00;99.90;;;;;;4953844;28;20398;-77
2021/03/04 02:44:10;;;;;;;52.42;32.28;;;6.10;99.90;;;;;;4941776;29;20814;-77
2021/03/04 02:46:38;;;;;;;52.47;32.35;;;;;;;;;;4952708;28;20414;-77
2021/03/04 02:49:05;;;;;;;47.22;31.40;;;6.00;99.90;;;;;;4954020;28;20468;-77
2021/03/04 02:51:32;;;;;;;49.43;31.50;;;5.80;99.90;;;;;;4953682;28;20396;-77
2021/03/04 02:53:59;;;;;;;48.03;31.67;;;;;;;;;;4954423;28;20796;-77
2021/03/04 02:56:25;;;;;;;49.72;31.00;;;;;;;;;;4954218;28;20453;-77
2021/03/04 02:58:52;;;;;;;49.15;31.10;;;;;;;;;;4956141;28;20500;-79
2021/03/04 03:01:20;;;;;;;50.33;31.88;;;6.10;99.90;;;;;;4953362;28;20489;-76
2021/03/04 03:03:48;;;;;;;48.05;31.58;;;6.00;99.90;;;;;;4953605;28;20408;-76
2021/03/04 03:06:16;;;;;;;47.70;29.63;;;6.10;99.90;;;;;;4953383;28;20400;-76
2021/03/04 03:08:42;;;;;;;49.15;31.17;;;6.10;99.90;;;;;;4944702;28;20415;-76
2021/03/04 03:11:09;;;;;;;51.22;31.65;;;5.90;99.90;;;;;;4933980;29;20395;-74
2021/03/04 03:13:35;;;;;;;49.05;30.88;;;6.10;99.90;;;;;;4934671;29;20391;-77
2021/03/04 03:16:00;;;;;;;45.77;29.83;;;6.10;99.90;;;;;;4935263;29;20398;-77
2021/03/04 03:18:26;;;;;;;46.13;30.90;;;;;;;;;;4934415;29;20478;-77
2021/03/04 03:20:52;;;;;;;44.20;29.45;;;6.10;99.90;;;;;;4950371;29;20394;-78
2021/03/04 03:23:18;;;;;;;50.03;31.60;;;;;;;;;;4953533;28;20464;-78
2021/03/04 03:25:44;;;;;;;45.97;30.67;;;;;;;;;;4942157;29;20395;-79
2021/03/04 03:28:10;;;;;;;46.17;30.50;;;6.20;99.90;;;;;;4953439;28;20915;-78
2021/03/04 03:30:35;;;;;;;51.47;31.60;;;6.30;99.90;;;;;;4952054;29;20398;-79
2021/03/04 03:33:05;;;;;;;49.90;31.13;;;6.40;99.90;;;;;;4945301;29;20394;-78
2021/03/04 03:35:31;;;;;;;48.28;30.58;;;6.30;99.90;;;;;;4954102;28;20398;-78
2021/03/04 03:37:58;;;;;;;46.10;29.77;;;;;;;;;;4954428;28;20741;-77
2021/03/04 03:40:25;;;;;;;45.83;31.33;;;6.30;99.90;;;;;;4952149;28;20406;-78
2021/03/04 03:42:53;;;;;;;49.83;32.80;;;6.40;99.90;;;;;;4944034;28;20396;-78
2021/03/04 03:45:22;;;;;;;50.72;32.35;;;6.30;99.90;;;;;;4949550;29;20967;-77
2021/03/04 03:47:49;;;;;;;47.45;32.67;;;6.40;99.90;;;;;;4942939;28;20412;-77
2021/03/04 03:50:16;;;;;;;48.03;33.35;;;6.20;99.90;;;;;;4935490;29;20395;-76
2021/03/04 03:52:43;;;;;;;51.70;35.57;;;;;;;;;;4933805;29;20395;-77
2021/03/04 03:55:11;;;;;;;64.05;44.60;;;7.00;99.90;;;;;;4933489;29;20863;-76
2021/03/04 03:57:39;;;;;;;61.95;45.08;;;;;;;;;;4933446;29;20396;-77
2021/03/04 04:00:05;;;;;;;53.90;36.80;;;6.40;99.90;;;;;;4945779;28;20920;-76
2021/03/04 04:02:32;;;;;;;52.05;34.40;;;6.00;99.90;;;;;;4933287;29;20400;-76
2021/03/04 04:04:59;;;;;;;53.03;34.10;;;6.60;99.90;;;;;;4932183;29;20497;-76
2021/03/04 04:07:26;;;;;;;52.78;35.28;;;5.90;99.90;;;;;;4944053;29;20476;-77
2021/03/04 04:09:53;;;;;;;53.50;35.38;;;;;;;;;;4948053;28;20391;-76
2021/03/04 04:12:18;;;;;;;53.88;34.05;;;5.70;99.90;;;;;;4933137;29;20407;-77
2021/03/04 04:14:44;;;;;;;47.90;33.70;;;6.00;99.90;;;;;;4933272;29;20398;-77
2021/03/04 04:17:09;;;;;;;47.43;33.20;;;5.90;99.90;;;;;;4933601;29;20407;-77
2021/03/04 04:19:36;;;;;;;47.47;33.73;;;;;;;;;;4950842;29;20824;-77
2021/03/04 04:22:01;;;;;;;48.03;33.30;;;5.70;99.90;;;;;;4952470;28;20439;-77
2021/03/04 04:24:27;;;;;;;48.10;34.27;;;;;;;;;;4955182;28;20389;-77
2021/03/04 04:26:53;;;;;;;49.30;31.80;;;5.70;99.90;;;;;;4953113;29;20421;-76
2021/03/04 04:29:18;;;;;;;52.75;33.85;;;5.70;99.90;;;;;;4935008;28;20503;-77
2021/03/04 04:31:44;;;;;;;52.10;33.83;;;5.40;99.90;;;;;;4933414;29;20757;-77
2021/03/04 04:34:09;;;;;;;48.40;32.47;;;5.80;99.90;;;;;;4942700;28;21010;-76
2021/03/04 04:36:35;;;;;;;50.47;33.80;;;5.90;99.90;;;;;;4960670;28;20392;-77
2021/03/04 04:39:01;;;;;;;49.80;32.33;;;;;;;;;;4955254;28;20395;-78
2021/03/04 04:41:27;;;;;;;52.55;34.55;;;;;;;;;;4955209;28;20456;-78
2021/03/04 04:43:53;;;;;;;55.28;35.33;;;5.90;99.90;;;;;;4950992;28;20396;-77
2021/03/04 04:46:19;;;;;;;53.37;34.13;;;;;;;;;;4937574;29;20448;-78
2021/03/04 04:48:45;;;;;;;55.42;34.50;;;;;;;;;;4950189;29;20416;-77
2021/03/04 04:51:14;;;;;;;52.15;34.30;;;5.50;99.90;;;;;;4936351;29;20924;-77
2021/03/04 04:53:40;;;;;;;52.55;34.38;;;5.80;99.90;;;;;;4935404;29;20383;-77
2021/03/04 04:56:06;;;;;;;55.25;35.08;;;5.10;99.90;;;;;;4937348;29;20921;-78
2021/03/04 04:58:32;;;;;;;51.35;34.38;;;5.10;99.90;;;;;;4937750;29;20404;-77
2021/03/04 05:00:58;;;;;;;53.93;33.90;;;5.00;99.90;;;;;;4933434;29;20399;-75
2021/03/04 05:03:23;;;;;;;56.10;35.23;;;5.10;99.90;;;;;;4932740;29;20490;-76
2021/03/04 05:05:49;;;;;;;53.03;35.57;;;4.40;99.90;;;;;;4932802;29;20408;-76
2021/03/04 05:08:14;;;;;;;52.13;34.20;;;5.30;99.90;;;;;;4933043;29;20411;-76
2021/03/04 05:10:40;;;;;;;56.17;36.33;;;5.30;99.90;;;;;;4932584;29;20394;-75
2021/03/04 05:13:05;;;;;;;50.53;33.83;;;5.20;99.90;;;;;;4932727;29;20391;-76
2021/03/04 05:15:32;;;;;;;58.07;35.73;;;;;;;;;;4932998;29;20388;-76
2021/03/04 05:17:57;;;;;;;52.25;35.33;;;4.90;99.90;;;;;;4946037;28;20396;-77
2021/03/04 05:20:23;;;;;;;55.67;34.63;;;;;;;;;;4933455;29;20795;-77
2021/03/04 05:22:49;;;;;;;55.38;34.90;;;;;;;;;;4939390;29;20746;-77
2021/03/04 05:25:15;;;;;;;55.53;35.40;;;5.30;99.90;;;;;;4951766;28;20390;-77
2021/03/04 05:27:42;;;;;;;68.45;41.05;;;;;;;;;;4952228;28;20411;-77
2021/03/04 05:30:09;;;;;;;62.72;40.72;;;;;;;;;;4954798;28;20385;-78
2021/03/04 05:32:35;;;;;;;68.57;42.33;;;;;;;;;;4961031;28;20381;-78
2021/03/04 05:35:04;;;;;;;57.63;36.35;;;5.30;99.90;;;;;;4975436;28;20470;-78
2021/03/04 05:37:29;;;;;;;66.63;42.55;;;5.20;99.90;;;;;;4958631;28;20431;-78
2021/03/04 05:39:55;;;;;;;75.55;45.67;;;;;;;;;;4941587;29;20399;-77
2021/03/04 05:42:21;;;;;;;88.05;49.33;;;4.80;99.90;;;;;;4946631;29;20415;-77
2021/03/04 05:44:48;;;;;;;76.10;45.17;;;5.40;99.90;;;;;;4941100;29;20871;-77
2021/03/04 05:47:14;;;;;;;74.55;44.50;;;;;;;;;;4940502;29;20411;-77
2021/03/04 05:50:04;;;;;;;76.68;45.63;;;4.60;99.90;;;;;;4942574;29;20388;-78
2021/03/04 05:52:39;;;;;;;81.93;48.33;;;4.70;99.90;;;;;;4968058;28;20475;-80
2021/03/04 05:55:06;;;;;;;88.30;52.25;;;5.30;99.90;;;;;;4940985;29;20415;-77
2021/03/04 05:57:32;;;;;;;94.00;53.45;;;;;;;;;;4941033;29;20873;-79
2021/03/04 05:59:58;;;;;;;90.32;52.88;;;4.80;99.90;;;;;;4941635;29;20882;-79
2021/03/04 06:02:24;;;;;;;92.20;53.17;;;;;;;;;;4941596;29;20403;-79
2021/03/04 06:04:50;;;;;;;73.05;45.33;;;4.90;99.90;;;;;;4941049;29;20423;-78
2021/03/04 06:07:16;;;;;;;70.72;44.17;;;;;;;;;;4965120;28;20424;-79
2021/03/04 06:09:43;;;;;;;74.05;44.83;;;;;;;;;;4942393;28;20387;-79
2021/03/04 06:12:09;;;;;;;73.32;44.45;;;;;;;;;;4939339;29;20915;-78
2021/03/04 06:14:36;;;;;;;68.40;42.28;;;4.70;99.90;;;;;;4939937;29;20863;-79
2021/03/04 06:17:18;;;;;;;68.55;42.80;;;6.30;99.90;;;;;;4938984;29;20750;-73
2021/03/04 06:19:55;;;;;;;86.07;55.77;;;4.90;99.90;;;;;;4937477;29;25115;-78
2021/03/04 06:22:25;;;;;;;93.22;60.55;;;;;;;;;;4953684;28;20467;-79
2021/03/04 06:24:55;;;;;;;85.47;57.03;;;4.40;99.90;;;;;;4939097;29;20887;-78
2021/03/04 06:27:30;;;;;;;79.95;53.40;;;5.50;99.90;;;;;;4938804;29;20408;-79
2021/03/04 06:30:00;;;;;;;60.13;39.67;;;;;;;;;;4952982;28;25128;-79
2021/03/04 06:32:27;;;;;;;57.33;38.20;;;;;;;;;;4955549;29;20409;-79
2021/03/04 06:35:06;;;;;;;75.10;49.60;;;4.90;99.90;;;;;;4968966;28;20377;-80
2021/03/04 06:37:33;;;;;;;66.10;42.92;;;;;;;;;;4958671;28;20398;-79
2021/03/04 06:39:59;;;;;;;69.35;45.90;;;;;;;;;;4953526;28;20399;-79
2021/03/04 06:42:25;;;;;;;56.03;38.72;;;;;;;;;;4946267;28;20402;-78
2021/03/04 06:44:55;;;;;;;53.45;35.13;;;;;;;;;;4937407;28;20418;-79
2021/03/04 06:47:25;;;;;;;52.70;36.35;;;;;;;;;;4952019;29;20407;-78
2021/03/04 06:49:52;;;;;;;49.17;34.50;;;;;;;;;;4935434;29;20415;-78
2021/03/04 06:52:27;;;;;;;50.33;35.23;;;5.40;99.90;;;;;;4950776;28;20476;-79
2021/03/04 06:54:55;;;;;;;52.70;35.30;;;5.50;99.90;;;;;;4950280;29;20882;-78
2021/03/04 06:57:22;;;;;;;49.58;34.92;;;5.00;99.90;;;;;;4955243;28;20441;-78
2021/03/04 06:59:48;;;;;;;50.47;34.20;;;5.40;99.90;;;;;;4955296;28;20414;-78
2021/03/04 07:02:25;;;;;;;49.13;32.22;;;5.20;99.90;;;;;;4955233;28;20904;-78
2021/03/04 07:05:01;;;;;;;48.40;33.15;;;5.20;99.90;;;;;;4942229;28;20413;-79
2021/03/04 07:07:28;;;;;;;48.50;33.70;;;;;;;;;;4944158;28;20806;-78
2021/03/04 07:09:56;;;;;;;49.65;36.08;;;5.00;99.90;;;;;;4953838;29;20904;-79
2021/03/04 07:12:23;;;;;;;49.07;34.87;;;5.50;99.90;;;;;;4969813;28;20417;-78
2021/03/04 07:14:50;;;;;;;47.38;33.08;;;;;;;;;;4955484;28;20394;-78
2021/03/04 07:17:16;;;;;;;47.15;33.60;;;;;;;;;;4944106;29;20399;-78
2021/03/04 07:19:50;;;;;;;53.08;36.00;;;;;;;;;;4936291;29;20392;-78
2021/03/04 07:22:17;;;;;;;49.10;33.37;;;;;;;;;;4948533;29;20394;-78
2021/03/04 07:24:44;;;;;;;49.28;33.35;;;;;;;;;;4955349;28;20413;-78
2021/03/04 07:27:15;;;;;;;50.85;33.58;;;6.00;99.90;;;;;;4942241;28;20411;-78
2021/03/04 07:29:45;;;;;;;52.00;33.30;;;;;;;;;;4947716;28;20865;-78
2021/03/04 07:32:12;;;;;;;51.25;33.40;;;5.80;99.90;;;;;;4950103;29;20374;-78
2021/03/04 07:34:39;;;;;;;49.58;33.15;;;5.60;99.90;;;;;;4954767;28;20386;-78
2021/03/04 07:37:06;;;;;;;49.63;33.10;;;6.10;99.90;;;;;;4955320;28;20409;-78
2021/03/04 07:39:33;;;;;;;48.65;33.55;;;6.10;99.90;;;;;;4955062;28;20533;-78
2021/03/04 07:41:59;;;;;;;50.15;34.42;;;;;;;;;;4954466;28;20398;-78
2021/03/04 07:44:25;;;;;;;48.08;33.53;;;;;;;;;;4946572;28;20902;-78
2021/03/04 07:46:51;;;;;;;48.60;32.27;;;6.20;99.90;;;;;;4950654;29;20389;-78
2021/03/04 07:49:17;;;;;;;46.10;31.60;;;;;;;;;;4954601;28;20398;-78
2021/03/04 07:51:48;;;;;;;42.97;29.10;;;6.30;99.90;;;;;;4939518;29;20392;-78
2021/03/04 07:54:15;;;;;;;42.03;28.98;;;6.80;99.90;;;;;;4944576;29;20389;-78
2021/03/04 07:56:42;;;;;;;42.88;27.75;;;6.10;99.90;;;;;;4954688;28;20394;-78
2021/03/04 07:59:15;;;;;;;38.28;27.42;;;;;;;;;;4944860;28;20471;-78
2021/03/04 08:01:42;;;;;;;36.70;25.73;;;6.50;99.90;;;;;;4935272;29;20921;-78
2021/03/04 08:04:20;;;;;;;38.78;26.40;;;6.20;99.90;;;;;;4946243;29;20789;-78
2021/03/04 08:06:50;;;;;;;37.65;25.88;;;6.40;99.90;;;;;;4935622;28;20450;-78
2021/03/04 08:09:34;;;;;;;38.53;25.83;;;7.00;99.90;;;;;;4935189;29;20400;-78
2021/03/04 08:12:10;;;;;;;35.70;25.07;;;6.60;99.90;;;;;;4958663;28;20529;-78
2021/03/04 08:14:38;;;;;;;38.15;25.33;;;7.20;99.90;;;;;;4950321;28;20398;-78
2021/03/04 08:17:04;;;;;;;41.03;25.10;;;7.40;99.90;;;;;;4945134;29;20872;-78
2021/03/04 08:19:31;;;;;;;35.73;25.23;;;7.60;99.90;;;;;;4950349;28;20462;-78
2021/03/04 08:22:08;;;;;;;38.47;24.85;;;7.40;99.90;;;;;;4934390;29;20392;-77
2021/03/04 08:24:39;;;;;;;36.33;25.40;;;7.60;99.90;;;;;;4941701;29;20462;-78
2021/03/04 08:27:06;;;;;;;37.80;25.27;;;7.10;99.90;;;;;;4969685;28;20979;-78
2021/03/04 08:29:33;;;;;;;39.05;24.63;;;7.30;99.90;;;;;;4953686;28;20438;-78
2021/03/04 08:32:02;;;;;;;35.03;24.52;;;7.40;99.90;;;;;;4954914;28;20472;-78
2021/03/04 08:34:38;;;;;;;36.72;24.00;;;7.20;99.90;;;;;;4949938;28;20806;-78
2021/03/04 08:37:04;;;;;;;41.38;24.67;;;7.50;99.90;;;;;;4959592;28;20390;-78
2021/03/04 08:39:32;;;;;;;36.92;24.27;;;7.40;99.90;;;;;;4946613;28;20395;-78
2021/03/04 08:42:02;;;;;;;36.60;24.42;;;8.00;99.90;;;;;;4948830;29;20862;-78
2021/03/04 08:44:28;;;;;;;33.03;22.85;;;7.80;99.90;;;;;;4945377;28;20874;-78
2021/03/04 08:46:53;;;;;;;38.15;23.88;;;7.50;99.90;;;;;;4937968;29;20390;-78
2021/03/04 08:49:20;;;;;;;35.23;23.40;;;8.10;99.90;;;;;;4954103;28;20873;-78
2021/03/04 08:51:46;;;;;;;35.70;22.38;;;;;;;;;;4950974;28;20387;-78
2021/03/04 08:54:25;;;;;;;30.47;22.67;;;8.60;99.90;;;;;;4935135;29;20482;-78
2021/03/04 08:56:52;;;;;;;36.30;22.08;;;8.70;99.90;;;;;;4935516;29;20532;-78
2021/03/04 08:59:25;;;;;;;34.58;22.58;;;8.70;99.90;;;;;;4935018;29;20966;-78
2021/03/04 09:01:51;;;;;;;36.85;22.63;;;8.80;99.90;;;;;;4948097;29;20387;-78
2021/03/04 09:04:24;;;;;;;34.33;21.83;;;8.80;99.90;;;;;;4961467;28;20397;-78
2021/03/04 09:06:50;;;;;;;31.42;22.40;;;8.80;99.90;;;;;;4943885;28;20476;-78
2021/03/04 09:09:23;;;;;;;32.65;22.30;;;8.80;99.90;;;;;;4956911;28;20841;-81
2021/03/04 09:11:49;;;;;;;32.08;21.50;;;;;;;;;;4944564;29;20869;-80
2021/03/04 09:14:16;;;;;;;35.35;22.60;;;8.50;99.90;;;;;;4952546;28;20392;-81
2021/03/04 09:16:51;;;;;;;40.20;24.52;;;8.90;99.90;;;;;;4949426;28;20522;-79
2021/03/04 09:19:26;;;;;;;38.87;23.10;;;8.70;99.90;;;;;;4950658;28;20409;-79
2021/03/04 09:21:52;;;;;;;33.73;23.30;;;9.10;99.90;;;;;;4970993;28;20401;-78
2021/03/04 09:24:18;;;;;;;37.20;22.27;;;9.10;99.90;;;;;;4954624;28;20766;-79
2021/03/04 09:26:44;;;;;;;33.05;22.67;;;9.40;99.90;;;;;;4949148;29;20961;-79
2021/03/04 09:29:10;;;;;;;35.90;22.88;;;9.50;99.90;;;;;;4945312;28;20456;-79
2021/03/04 09:31:36;;;;;;;40.17;23.83;;;8.80;99.90;;;;;;4958095;28;20386;-79
2021/03/04 09:34:03;;;;;;;42.90;23.87;;;;;;;;;;4973427;28;20386;-80
2021/03/04 09:36:29;;;;;;;33.95;23.38;;;8.80;99.90;;;;;;4948276;28;20439;-79
2021/03/04 09:38:56;;;;;;;33.70;22.27;;;8.60;99.90;;;;;;4955070;29;20808;-80
2021/03/04 09:41:24;;;;;;;31.02;22.17;;;9.00;99.90;;;;;;4948001;28;20415;-79
2021/03/04 09:44:01;;;;;;;32.37;22.10;;;8.70;99.90;;;;;;4952213;29;20487;-80
2021/03/04 09:46:34;;;;;;;34.45;22.98;;;8.80;99.90;;;;;;4952842;28;20902;-79
2021/03/04 09:49:08;;;;;;;36.03;22.08;;;8.80;99.90;;;;;;4950187;28;20458;-80
2021/03/04 09:51:39;;;;;;;34.25;21.58;;;9.30;99.90;;;;;;4966568;28;20891;-80
2021/03/04 09:54:06;;;;;;;36.22;21.83;;;9.00;99.90;;;;;;4952444;28;20426;-79
2021/03/04 09:56:32;;;;;;;33.47;22.17;;;9.10;99.90;;;;;;4947662;29;20882;-80
2021/03/04 09:58:59;;;;;;;32.50;20.95;;;9.40;99.90;;;;;;4945631;29;20412;-80
2021/03/04 10:01:36;;;;;;;30.45;19.77;;;9.70;99.90;;;;;;4941854;28;20450;-80
2021/03/04 10:04:11;;;;;;;29.43;19.90;;;;;;;;;;4937502;29;20435;-79
2021/03/04 10:06:40;;;;;;;29.63;19.60;;;9.90;99.90;;;;;;4954822;29;20476;-80
2021/03/04 10:09:07;;;;;;;34.38;21.58;;;10.10;99.90;;;;;;4960233;28;20416;-79
2021/03/04 10:11:38;;;;;;;33.35;21.60;;;10.40;99.90;;;;;;4950069;29;20399;-79
2021/03/04 10:14:13;;;;;;;29.33;19.33;;;10.20;99.90;;;;;;4949858;29;20429;-80
2021/03/04 10:16:40;;;;;;;31.70;20.08;;;;;;;;;;4943355;29;20414;-80
2021/03/04 10:19:09;;;;;;;33.28;20.30;;;10.40;99.90;;;;;;4952297;28;20400;-79
2021/03/04 10:21:35;;;;;;;33.40;20.83;;;10.40;99.90;;;;;;4947475;28;20554;-79
2021/03/04 10:24:02;;;;;;;36.80;21.45;;;10.40;99.90;;;;;;4950293;29;20418;-80
2021/03/04 10:26:28;;;;;;;27.60;20.52;;;;;;;;;;4939406;29;20391;-79
2021/03/04 10:28:54;;;;;;;33.72;20.67;;;10.20;99.90;;;;;;4942109;29;20834;-78
2021/03/04 10:31:20;;;;;;;50.28;22.05;;;10.30;99.90;;;;;;4953929;28;20483;-79
2021/03/04 10:33:46;;;;;;;31.70;20.43;;;10.50;99.90;;;;;;4954891;28;20968;-79
2021/03/04 10:36:11;;;;;;;34.67;20.73;;;10.60;99.90;;;;;;4968801;28;20454;-79
2021/03/04 10:38:37;;;;;;;34.33;20.10;;;10.90;99.90;;;;;;4943377;28;20829;-79
2021/03/04 10:41:03;;;;;;;31.87;19.43;;;10.80;99.90;;;;;;4954471;28;20398;-79
2021/03/04 10:43:29;;;;;;;31.97;19.70;;;11.00;99.90;;;;;;4942043;29;20402;-79
2021/03/04 10:45:55;;;;;;;30.23;20.23;;;11.10;99.90;;;;;;4943526;29;20401;-79
2021/03/04 10:48:21;;;;;;;29.25;19.13;;;11.30;99.90;;;;;;4955297;28;20410;-79
2021/03/04 10:50:47;;;;;;;31.35;19.35;;;11.20;99.90;;;;;;4943643;29;20455;-79
2021/03/04 10:53:13;;;;;;;33.10;20.73;;;11.20;99.90;;;;;;4942023;28;20391;-79
2021/03/04 10:55:39;;;;;;;29.00;20.08;;;11.40;99.90;;;;;;4943601;29;20398;-78
2021/03/04 10:58:05;;;;;;;31.50;21.02;;;11.20;99.90;;;;;;4956703;28;21069;-79
2021/03/04 11:00:31;;;;;;;30.95;20.52;;;11.10;99.90;;;;;;4959932;28;20417;-79
2021/03/04 11:02:56;;;;;;;32.45;21.42;;;11.30;99.90;;;;;;4975721;28;20392;-79
2021/03/04 11:05:22;;;;;;;33.10;21.13;;;11.30;99.90;;;;;;4964566;28;20410;-79
2021/03/04 11:07:47;;;;;;;30.07;20.80;;;11.30;99.90;;;;;;4974680;28;20412;-79
2021/03/04 11:10:13;;;;;;;35.63;21.53;;;11.20;99.90;;;;;;4965120;28;20470;-79
2021/03/04 11:12:40;;;;;;;35.05;21.27;;;;;;;;;;4971451;28;20823;-79
2021/03/04 11:15:06;;;;;;;31.52;21.05;;;11.50;99.90;;;;;;4963348;28;20380;-79
2021/03/04 11:17:32;;;;;;;59.85;23.75;;;11.50;99.90;;;;;;4972603;28;20387;-79
2021/03/04 11:19:57;;;;;;;31.85;20.25;;;11.60;99.90;;;;;;4962338;28;20976;-79
2021/03/04 11:22:23;;;;;;;33.38;20.45;;;;;;;;;;4968024;28;20396;-79
2021/03/04 11:24:49;;;;;;;31.67;20.55;;;11.50;99.90;;;;;;4963007;28;20396;-79
2021/03/04 11:27:15;;;;;;;28.83;20.50;;;11.60;99.90;;;;;;4965006;28;20755;-79
2021/03/04 11:30:00;;;;;;;33.55;20.83;;;;;;;;;;4967897;28;20400;-79
2021/03/04 11:32:29;;;;;;;30.38;19.85;;;;;;;;;;4964238;28;20387;-79
2021/03/04 11:34:55;;;;;;;29.05;19.45;;;11.90;99.90;;;;;;4975244;28;20396;-79
2021/03/04 11:37:21;;;;;;;30.98;20.33;;;;;;;;;;4964769;28;20395;-79
2021/03/04 11:39:46;;;;;;;32.60;19.90;;;12.30;99.90;;;;;;4952150;28;20467;-79
2021/03/04 11:42:12;;;;;;;30.57;20.40;;;12.40;99.90;;;;;;4965080;28;20442;-78
2021/03/04 11:44:38;;;;;;;31.90;19.57;;;;;;;;;;4974493;28;20811;-80
2021/03/04 11:47:04;;;;;;;30.20;20.23;;;12.40;99.90;;;;;;4965883;28;20405;-77
2021/03/04 11:49:29;;;;;;;29.13;20.03;;;12.60;99.90;;;;;;4966597;28;20392;-77
2021/03/04 11:51:55;;;;;;;30.03;20.53;;;;;;;;;;4969476;28;20392;-79
2021/03/04 11:54:21;;;;;;;30.40;20.00;;;12.50;99.90;;;;;;4972646;28;20584;-79
2021/03/04 11:56:47;;;;;;;29.03;20.03;;;;;;;;;;4963670;28;20418;-79
2021/03/04 11:59:13;;;;;;;29.10;19.10;;;13.00;99.90;;;;;;4965998;28;20404;-79
2021/03/04 12:01:40;;;;;;;31.95;20.05;;;12.80;99.90;;;;;;4954420;28;20396;-80
2021/03/04 12:04:06;;;;;;;30.38;19.25;;;13.10;99.90;;;;;;4965911;28;20399;-79
2021/03/04 12:06:33;;;;;;;31.63;19.63;;;13.20;99.90;;;;;;4966041;28;20853;-79
2021/03/04 12:08:59;;;;;;;42.72;20.83;;;;;;;;;;4960888;28;20833;-79
2021/03/04 12:11:25;;;;;;;32.13;19.50;;;14.20;99.90;;;;;;4936727;28;20402;-79
2021/03/04 12:13:50;;;;;;;30.87;19.17;;;14.00;99.90;;;;;;4936164;29;20879;-79
2021/03/04 12:16:16;;;;;;;31.92;19.73;;;;;;;;;;4934991;29;20396;-79
2021/03/04 12:18:42;;;;;;;33.30;19.17;;;14.50;99.90;;;;;;4935379;29;20419;-79
2021/03/04 12:21:08;;;;;;;31.13;19.08;;;;;;;;;;4935244;29;20400;-79
2021/03/04 12:23:33;;;;;;;31.02;19.30;;;14.00;99.90;;;;;;4935387;29;20755;-79
2021/03/04 12:25:59;;;;;;;35.10;20.55;;;14.00;99.90;;;;;;4935399;29;20387;-79
2021/03/04 12:28:25;;;;;;;31.33;19.08;;;14.20;99.90;;;;;;4935231;29;20756;-79
2021/03/04 12:30:51;;;;;;;27.17;18.85;;;;;;;;;;4935342;28;20414;-79
2021/03/04 12:33:17;;;;;;;27.70;19.40;;;13.60;99.90;;;;;;4935971;29;20880;-79
2021/03/04 12:35:43;;;;;;;32.97;19.13;;;;;;;;;;4965546;28;20394;-79
2021/03/04 12:38:09;;;;;;;28.55;18.90;;;14.40;99.90;;;;;;4954599;29;20861;-79
2021/03/04 12:40:36;;;;;;;30.83;19.08;;;13.70;99.90;;;;;;4956815;28;20390;-79
2021/03/04 12:43:03;;;;;;;30.13;18.92;;;13.90;99.90;;;;;;4947645;28;20423;-79
2021/03/04 12:45:28;;;;;;;28.08;18.63;;;13.90;99.90;;;;;;4939030;29;20470;-79
2021/03/04 12:47:54;;;;;;;27.77;18.73;;;13.60;99.90;;;;;;4950325;29;20833;-79
2021/03/04 12:50:20;;;;;;;31.23;19.42;;;14.10;99.90;;;;;;4953587;28;20404;-79
2021/03/04 12:52:46;;;;;;;31.08;18.45;;;14.30;99.90;;;;;;4937435;29;20758;-79
2021/03/04 12:55:12;;;;;;;30.13;18.80;;;15.00;99.90;;;;;;4937304;29;20384;-79
2021/03/04 12:57:38;;;;;;;29.80;19.20;;;15.10;99.90;;;;;;4937844;29;20512;-79
2021/03/04 13:00:08;;;;;;;30.75;19.90;;;15.70;99.90;;;;;;4937441;29;21014;-80